Terminal Aerodrome Forecast
Issued by NWS Buffalo, NY

Home | Current Version | Previous Version | Text Only | Print | Product List | Glossary On
Versions: 1 2 3 4 5 6 7 8 9 10 11 12 13 14 15 16 17 18 19 20 21 22 23 24 25 26 27
592
FTUS41 KBUF 250541
TAFROC
TAF
KROC 250541Z 2506/2606 24005KT P6SM BKN060
     FM251000 23009KT P6SM SKC
     FM251400 25013G19KT P6SM FEW250
     FM251600 26014G27KT P6SM VCSH BKN060
     FM260000 26010KT P6SM FEW250
     FM260200 25009KT P6SM VCSH BKN060=

USA.gov is the U.S. government's official web portal to all federal, state and local government web resources and services.